sensor_id;sensor_type;location;lat;lon;timestamp;pressure;altitude;pressure_sealevel;temperature;humidity
68859;BME280;55864;49.238;8.092;2023-04-27T00:00:58;99555.53;;;9.34;57.14
68859;BME280;55864;49.238;8.092;2023-04-27T00:02:59;99548.88;;;9.30;57.78
68859;BME280;55864;49.238;8.092;2023-04-27T00:05:00;99543.66;;;9.30;57.30
68859;BME280;55864;49.238;8.092;2023-04-27T00:07:00;99538.53;;;9.28;57.90
68859;BME280;55864;49.238;8.092;2023-04-27T00:09:00;99546.41;;;9.28;57.22
68859;BME280;55864;49.238;8.092;2023-04-27T00:11:01;99548.19;;;9.28;57.47
68859;BME280;55864;49.238;8.092;2023-04-27T00:13:02;99543.09;;;9.26;56.28
68859;BME280;55864;49.238;8.092;2023-04-27T00:15:03;99549.16;;;9.27;57.22
68859;BME280;55864;49.238;8.092;2023-04-27T00:17:05;99546.13;;;9.31;56.61
68859;BME280;55864;49.238;8.092;2023-04-27T00:19:05;99543.78;;;9.28;57.21
68859;BME280;55864;49.238;8.092;2023-04-27T00:21:07;99537.97;;;9.25;56.69
68859;BME280;55864;49.238;8.092;2023-04-27T00:23:07;99542.38;;;9.24;57.37
68859;BME280;55864;49.238;8.092;2023-04-27T00:25:08;99540.84;;;9.22;57.48
68859;BME280;55864;49.238;8.092;2023-04-27T00:27:09;99532.28;;;9.20;56.52
68859;BME280;55864;49.238;8.092;2023-04-27T00:29:09;99530.63;;;9.19;57.33
68859;BME280;55864;49.238;8.092;2023-04-27T00:31:10;99536.16;;;9.16;56.56
68859;BME280;55864;49.238;8.092;2023-04-27T00:33:11;99536.03;;;9.17;57.39
68859;BME280;55864;49.238;8.092;2023-04-27T00:35:14;99535.03;;;9.18;56.98
68859;BME280;55864;49.238;8.092;2023-04-27T00:37:16;99539.59;;;9.16;57.19
68859;BME280;55864;49.238;8.092;2023-04-27T00:39:16;99543.22;;;8.95;58.81
68859;BME280;55864;49.238;8.092;2023-04-27T00:41:17;99541.25;;;8.87;57.86
68859;BME280;55864;49.238;8.092;2023-04-27T00:43:17;99536.97;;;8.66;57.37
68859;BME280;55864;49.238;8.092;2023-04-27T00:45:18;99543.91;;;8.55;58.28
68859;BME280;55864;49.238;8.092;2023-04-27T00:47:18;99542.34;;;8.43;57.91
68859;BME280;55864;49.238;8.092;2023-04-27T00:49:20;99538.69;;;8.24;58.64
68859;BME280;55864;49.238;8.092;2023-04-27T00:51:21;99544.56;;;8.16;59.16
68859;BME280;55864;49.238;8.092;2023-04-27T00:53:22;99534.00;;;8.07;59.86
68859;BME280;55864;49.238;8.092;2023-04-27T00:55:23;99541.31;;;8.24;59.66
68859;BME280;55864;49.238;8.092;2023-04-27T00:57:24;99539.25;;;8.38;59.69
68859;BME280;55864;49.238;8.092;2023-04-27T00:59:24;99543.75;;;8.47;59.06
68859;BME280;55864;49.238;8.092;2023-04-27T01:01:25;99548.06;;;8.58;58.29
68859;BME280;55864;49.238;8.092;2023-04-27T01:03:26;99551.03;;;8.65;58.25
68859;BME280;55864;49.238;8.092;2023-04-27T01:05:28;99547.88;;;8.71;58.37
68859;BME280;55864;49.238;8.092;2023-04-27T01:07:29;99544.75;;;8.77;57.31
68859;BME280;55864;49.238;8.092;2023-04-27T01:09:31;99548.91;;;8.79;57.19
68859;BME280;55864;49.238;8.092;2023-04-27T01:11:32;99555.00;;;8.80;57.76
68859;BME280;55864;49.238;8.092;2023-04-27T01:13:33;99540.91;;;8.81;57.95
68859;BME280;55864;49.238;8.092;2023-04-27T01:15:34;99542.31;;;8.85;57.84
68859;BME280;55864;49.238;8.092;2023-04-27T01:17:35;99548.97;;;8.89;58.02
68859;BME280;55864;49.238;8.092;2023-04-27T01:19:38;99554.22;;;8.89;56.86
68859;BME280;55864;49.238;8.092;2023-04-27T01:21:40;99550.88;;;8.87;57.24
68859;BME280;55864;49.238;8.092;2023-04-27T01:23:41;99551.59;;;8.89;57.62
68859;BME280;55864;49.238;8.092;2023-04-27T01:25:43;99555.84;;;8.90;58.00
68859;BME280;55864;49.238;8.092;2023-04-27T01:27:44;99554.06;;;8.90;58.25
68859;BME280;55864;49.238;8.092;2023-04-27T01:29:45;99555.84;;;8.90;57.48
68859;BME280;55864;49.238;8.092;2023-04-27T01:31:45;99557.25;;;8.94;57.57
68859;BME280;55864;49.238;8.092;2023-04-27T01:33:46;99551.88;;;8.95;57.60
68859;BME280;55864;49.238;8.092;2023-04-27T01:35:47;99554.25;;;8.98;57.56
68859;BME280;55864;49.238;8.092;2023-04-27T01:37:48;99556.75;;;9.00;56.79
68859;BME280;55864;49.238;8.092;2023-04-27T01:39:52;99550.44;;;9.02;56.97
68859;BME280;55864;49.238;8.092;2023-04-27T01:41:53;99553.03;;;9.02;57.34
68859;BME280;55864;49.238;8.092;2023-04-27T01:43:53;99551.13;;;9.04;56.62
68859;BME280;55864;49.238;8.092;2023-04-27T01:45:55;99543.13;;;9.06;57.22
68859;BME280;55864;49.238;8.092;2023-04-27T01:47:55;99550.16;;;9.05;57.22
68859;BME280;55864;49.238;8.092;2023-04-27T01:49:56;99553.63;;;9.06;57.08
68859;BME280;55864;49.238;8.092;2023-04-27T01:51:57;99556.94;;;9.08;57.83
68859;BME280;55864;49.238;8.092;2023-04-27T01:53:58;99556.78;;;9.09;57.48
68859;BME280;55864;49.238;8.092;2023-04-27T01:56:00;99561.91;;;9.11;57.60
68859;BME280;55864;49.238;8.092;2023-04-27T01:58:00;99561.66;;;9.14;56.36
68859;BME280;55864;49.238;8.092;2023-04-27T02:00:01;99569.25;;;9.17;56.33
68859;BME280;55864;49.238;8.092;2023-04-27T02:02:21;99566.63;;;9.17;56.16
68859;BME280;55864;49.238;8.092;2023-04-27T02:04:21;99561.25;;;9.18;56.33
68859;BME280;55864;49.238;8.092;2023-04-27T02:06:22;99554.22;;;9.19;57.01
68859;BME280;55864;49.238;8.092;2023-04-27T02:08:22;99553.25;;;9.20;56.63
68859;BME280;55864;49.238;8.092;2023-04-27T02:10:23;99562.66;;;9.22;56.59
68859;BME280;55864;49.238;8.092;2023-04-27T02:12:29;99566.09;;;9.23;55.37
68859;BME280;55864;49.238;8.092;2023-04-27T02:14:30;99554.66;;;9.24;56.22
68859;BME280;55864;49.238;8.092;2023-04-27T02:16:30;99556.19;;;9.26;56.21
68859;BME280;55864;49.238;8.092;2023-04-27T02:18:31;99552.59;;;9.27;56.30
68859;BME280;55864;49.238;8.092;2023-04-27T02:20:32;99558.44;;;9.31;56.33
68859;BME280;55864;49.238;8.092;2023-04-27T02:22:34;99556.75;;;9.30;55.68
68859;BME280;55864;49.238;8.092;2023-04-27T02:24:35;99551.50;;;9.30;56.43
68859;BME280;55864;49.238;8.092;2023-04-27T02:26:36;99552.22;;;9.32;56.64
68859;BME280;55864;49.238;8.092;2023-04-27T02:28:38;99554.69;;;9.33;55.68
68859;BME280;55864;49.238;8.092;2023-04-27T02:30:39;99554.69;;;9.33;55.97
68859;BME280;55864;49.238;8.092;2023-04-27T02:32:39;99561.63;;;9.34;55.65
68859;BME280;55864;49.238;8.092;2023-04-27T02:34:40;99552.22;;;9.32;55.45
68859;BME280;55864;49.238;8.092;2023-04-27T02:36:40;99554.56;;;9.35;55.00
68859;BME280;55864;49.238;8.092;2023-04-27T02:38:42;99554.56;;;9.35;56.83
68859;BME280;55864;49.238;8.092;2023-04-27T02:40:44;99557.88;;;9.37;56.19
68859;BME280;55864;49.238;8.092;2023-04-27T02:42:44;99564.66;;;9.39;55.17
68859;BME280;55864;49.238;8.092;2023-04-27T02:44:46;99560.22;;;9.30;55.86
68859;BME280;55864;49.238;8.092;2023-04-27T02:46:47;99567.84;;;9.13;55.01
68859;BME280;55864;49.238;8.092;2023-04-27T02:48:47;99567.22;;;9.00;55.87
68859;BME280;55864;49.238;8.092;2023-04-27T02:50:48;99569.41;;;8.95;56.06
68859;BME280;55864;49.238;8.092;2023-04-27T02:52:48;99560.38;;;8.88;56.26
68859;BME280;55864;49.238;8.092;2023-04-27T02:54:49;99567.75;;;8.73;55.32
68859;BME280;55864;49.238;8.092;2023-04-27T02:56:49;99568.66;;;8.63;55.48
68859;BME280;55864;49.238;8.092;2023-04-27T02:58:50;99568.09;;;8.59;56.14
68859;BME280;55864;49.238;8.092;2023-04-27T03:00:54;99565.41;;;8.49;57.23
68859;BME280;55864;49.238;8.092;2023-04-27T03:02:54;99566.59;;;8.45;57.16
68859;BME280;55864;49.238;8.092;2023-04-27T03:04:55;99555.56;;;8.42;57.60
68859;BME280;55864;49.238;8.092;2023-04-27T03:06:56;99561.41;;;8.34;58.18
68859;BME280;55864;49.238;8.092;2023-04-27T03:08:56;99562.63;;;8.30;58.07
68859;BME280;55864;49.238;8.092;2023-04-27T03:10:57;99570.84;;;8.26;59.16
68859;BME280;55864;49.238;8.092;2023-04-27T03:12:57;99569.19;;;8.25;59.29
68859;BME280;55864;49.238;8.092;2023-04-27T03:14:59;99567.75;;;8.21;59.13
68859;BME280;55864;49.238;8.092;2023-04-27T03:17:01;99570.50;;;8.19;58.89
68859;BME280;55864;49.238;8.092;2023-04-27T03:19:01;99568.81;;;8.18;58.76
68859;BME280;55864;49.238;8.092;2023-04-27T03:21:05;99576.22;;;8.13;58.95
68859;BME280;55864;49.238;8.092;2023-04-27T03:23:06;99570.28;;;8.11;58.98
68859;BME280;55864;49.238;8.092;2023-04-27T03:25:07;99572.88;;;8.11;58.46
68859;BME280;55864;49.238;8.092;2023-04-27T03:27:07;99578.13;;;8.11;58.86
68859;BME280;55864;49.238;8.092;2023-04-27T03:29:08;99566.50;;;8.04;59.07
68859;BME280;55864;49.238;8.092;2023-04-27T03:31:10;99567.44;;;8.03;59.77
68859;BME280;55864;49.238;8.092;2023-04-27T03:33:12;99571.97;;;8.01;60.20
68859;BME280;55864;49.238;8.092;2023-04-27T03:35:13;99578.97;;;8.01;59.49
68859;BME280;55864;49.238;8.092;2023-04-27T03:37:14;99575.63;;;7.99;59.88
68859;BME280;55864;49.238;8.092;2023-04-27T03:39:14;99573.03;;;7.99;60.28
68859;BME280;55864;49.238;8.092;2023-04-27T03:41:15;99568.19;;;7.94;60.92
68859;BME280;55864;49.238;8.092;2023-04-27T03:43:15;99562.09;;;7.94;60.60
68859;BME280;55864;49.238;8.092;2023-04-27T03:45:16;99561.97;;;7.95;60.44
68859;BME280;55864;49.238;8.092;2023-04-27T03:47:17;99566.41;;;7.95;60.76
68859;BME280;55864;49.238;8.092;2023-04-27T03:49:19;99565.78;;;7.91;60.86
68859;BME280;55864;49.238;8.092;2023-04-27T03:51:19;99563.44;;;7.88;60.57
68859;BME280;55864;49.238;8.092;2023-04-27T03:53:20;99567.03;;;7.87;60.77
68859;BME280;55864;49.238;8.092;2023-04-27T03:55:21;99569.72;;;7.86;60.90
68859;BME280;55864;49.238;8.092;2023-04-27T03:57:22;99566.31;;;7.85;60.73
68859;BME280;55864;49.238;8.092;2023-04-27T03:59:23;99568.91;;;7.85;60.77
68859;BME280;55864;49.238;8.092;2023-04-27T04:01:24;99574.88;;;7.87;60.85
68859;BME280;55864;49.238;8.092;2023-04-27T04:03:24;99578.53;;;7.85;61.38
68859;BME280;55864;49.238;8.092;2023-04-27T04:05:26;99576.75;;;7.85;61.07
68859;BME280;55864;49.238;8.092;2023-04-27T04:07:28;99575.94;;;7.85;60.98
68859;BME280;55864;49.238;8.092;2023-04-27T04:09:28;99576.38;;;7.90;61.36
68859;BME280;55864;49.238;8.092;2023-04-27T04:11:29;99575.28;;;8.03;61.70
68859;BME280;55864;49.238;8.092;2023-04-27T04:13:32;99567.25;;;8.16;62.15
68859;BME280;55864;49.238;8.092;2023-04-27T04:15:33;99568.34;;;8.24;61.09
68859;BME280;55864;49.238;8.092;2023-04-27T04:17:33;99569.38;;;8.33;60.84
68859;BME280;55864;49.238;8.092;2023-04-27T04:19:35;99566.97;;;8.41;59.82
68859;BME280;55864;49.238;8.092;2023-04-27T04:21:37;99564.69;;;8.47;59.86
68859;BME280;55864;49.238;8.092;2023-04-27T04:23:38;99572.72;;;8.55;60.25
68859;BME280;55864;49.238;8.092;2023-04-27T04:25:38;99566.28;;;8.60;59.74
68859;BME280;55864;49.238;8.092;2023-04-27T04:27:39;99571.28;;;8.63;59.00
68859;BME280;55864;49.238;8.092;2023-04-27T04:29:39;99568.53;;;8.64;60.29
68859;BME280;55864;49.238;8.092;2023-04-27T04:31:40;99567.31;;;8.68;59.72
68859;BME280;55864;49.238;8.092;2023-04-27T04:33:43;99571.22;;;8.74;58.43
68859;BME280;55864;49.238;8.092;2023-04-27T04:35:43;99562.94;;;8.78;59.08
68859;BME280;55864;49.238;8.092;2023-04-27T04:37:45;99568.78;;;8.82;59.21
68859;BME280;55864;49.238;8.092;2023-04-27T04:39:46;99568.53;;;8.85;58.84
68859;BME280;55864;49.238;8.092;2023-04-27T04:41:47;99563.00;;;8.88;58.75
68859;BME280;55864;49.238;8.092;2023-04-27T04:43:48;99568.00;;;8.91;58.88
68859;BME280;55864;49.238;8.092;2023-04-27T04:45:50;99566.91;;;8.93;58.86
68859;BME280;55864;49.238;8.092;2023-04-27T04:47:51;99563.19;;;8.96;59.00
68859;BME280;55864;49.238;8.092;2023-04-27T04:49:52;99566.38;;;8.99;58.38
68859;BME280;55864;49.238;8.092;2023-04-27T04:51:52;99570.56;;;9.02;59.62
68859;BME280;55864;49.238;8.092;2023-04-27T04:53:54;99569.56;;;9.03;58.10
68859;BME280;55864;49.238;8.092;2023-04-27T04:55:56;99571.63;;;8.99;58.98
68859;BME280;55864;49.238;8.092;2023-04-27T04:57:57;99570.69;;;9.00;58.90
68859;BME280;55864;49.238;8.092;2023-04-27T04:59:58;99572.34;;;9.01;59.38
68859;BME280;55864;49.238;8.092;2023-04-27T05:01:58;99577.72;;;9.00;59.69
68859;BME280;55864;49.238;8.092;2023-04-27T05:03:59;99578.13;;;9.05;60.25
68859;BME280;55864;49.238;8.092;2023-04-27T05:05:59;99579.25;;;9.02;60.39
68859;BME280;55864;49.238;8.092;2023-04-27T05:08:00;99581.47;;;9.07;60.78
68859;BME280;55864;49.238;8.092;2023-04-27T05:10:02;99584.09;;;9.07;60.62
68859;BME280;55864;49.238;8.092;2023-04-27T05:12:03;99583.84;;;9.10;60.25
68859;BME280;55864;49.238;8.092;2023-04-27T05:14:04;99580.75;;;9.05;61.12
68859;BME280;55864;49.238;8.092;2023-04-27T05:16:05;99586.84;;;9.05;60.70
68859;BME280;55864;49.238;8.092;2023-04-27T05:18:06;99588.63;;;9.05;60.83
68859;BME280;55864;49.238;8.092;2023-04-27T05:20:07;99593.16;;;9.03;60.75
68859;BME280;55864;49.238;8.092;2023-04-27T05:22:07;99595.09;;;9.01;60.92
68859;BME280;55864;49.238;8.092;2023-04-27T05:24:08;99595.09;;;9.01;60.30
68859;BME280;55864;49.238;8.092;2023-04-27T05:26:14;99606.97;;;9.05;61.14
68859;BME280;55864;49.238;8.092;2023-04-27T05:28:14;99598.41;;;9.03;60.50
68859;BME280;55864;49.238;8.092;2023-04-27T05:30:15;99606.53;;;9.00;61.11
68859;BME280;55864;49.238;8.092;2023-04-27T05:32:16;99603.06;;;8.99;60.37
68859;BME280;55864;49.238;8.092;2023-04-27T05:34:16;99607.22;;;9.02;60.00
68859;BME280;55864;49.238;8.092;2023-04-27T05:36:17;99611.13;;;9.07;60.96
68859;BME280;55864;49.238;8.092;2023-04-27T05:38:17;99612.91;;;9.07;61.22
68859;BME280;55864;49.238;8.092;2023-04-27T05:40:18;99605.75;;;9.09;60.57
68859;BME280;55864;49.238;8.092;2023-04-27T05:42:20;99613.38;;;9.12;60.94
68859;BME280;55864;49.238;8.092;2023-04-27T05:44:20;99615.16;;;9.11;60.64
68859;BME280;55864;49.238;8.092;2023-04-27T05:46:21;99609.06;;;9.11;61.46
68859;BME280;55864;49.238;8.092;2023-04-27T05:48:21;99608.38;;;9.09;60.68
68859;BME280;55864;49.238;8.092;2023-04-27T05:50:22;99618.59;;;9.12;60.57
68859;BME280;55864;49.238;8.092;2023-04-27T05:52:22;99620.38;;;9.11;61.17
68859;BME280;55864;49.238;8.092;2023-04-27T05:54:23;99622.75;;;9.14;60.63
68859;BME280;55864;49.238;8.092;2023-04-27T05:56:23;99623.44;;;9.16;60.75
68859;BME280;55864;49.238;8.092;2023-04-27T05:58:26;99623.06;;;9.21;60.21
68859;BME280;55864;49.238;8.092;2023-04-27T06:00:26;99622.22;;;9.20;61.01
68859;BME280;55864;49.238;8.092;2023-04-27T06:02:27;99618.66;;;9.21;59.81
68859;BME280;55864;49.238;8.092;2023-04-27T06:04:27;99618.34;;;9.15;59.28
68859;BME280;55864;49.238;8.092;2023-04-27T06:06:30;99623.00;;;9.11;59.48
68859;BME280;55864;49.238;8.092;2023-04-27T06:08:31;99632.78;;;8.89;59.92
68859;BME280;55864;49.238;8.092;2023-04-27T06:10:31;99632.84;;;8.98;60.01
68859;BME280;55864;49.238;8.092;2023-04-27T06:12:32;99636.63;;;9.05;60.88
68859;BME280;55864;49.238;8.092;2023-04-27T06:14:35;99634.19;;;9.13;60.16
68859;BME280;55864;49.238;8.092;2023-04-27T06:16:35;99630.22;;;9.19;60.88
68859;BME280;55864;49.238;8.092;2023-04-27T06:18:36;99642.13;;;9.23;60.23
68859;BME280;55864;49.238;8.092;2023-04-27T06:20:37;99639.50;;;9.23;59.61
68859;BME280;55864;49.238;8.092;2023-04-27T06:22:38;99641.28;;;9.22;59.25
68859;BME280;55864;49.238;8.092;2023-04-27T06:24:38;99637.00;;;9.21;59.05
68859;BME280;55864;49.238;8.092;2023-04-27T06:26:39;99640.97;;;9.16;58.68
68859;BME280;55864;49.238;8.092;2023-04-27T06:28:39;99636.53;;;9.16;59.20
68859;BME280;55864;49.238;8.092;2023-04-27T06:30:41;99648.84;;;9.16;58.92
68859;BME280;55864;49.238;8.092;2023-04-27T06:32:42;99647.50;;;9.01;59.44
68859;BME280;55864;49.238;8.092;2023-04-27T06:34:42;99648.81;;;8.95;60.38
68859;BME280;55864;49.238;8.092;2023-04-27T06:36:43;99650.94;;;9.01;60.20
68859;BME280;55864;49.238;8.092;2023-04-27T06:38:43;99653.94;;;8.97;60.94
68859;BME280;55864;49.238;8.092;2023-04-27T06:40:44;99654.59;;;8.89;61.88
68859;BME280;55864;49.238;8.092;2023-04-27T06:42:44;99651.38;;;8.86;61.64
68859;BME280;55864;49.238;8.092;2023-04-27T06:44:45;99645.69;;;8.81;61.51
68859;BME280;55864;49.238;8.092;2023-04-27T06:46:47;99655.88;;;8.95;61.58
68859;BME280;55864;49.238;8.092;2023-04-27T06:48:47;99650.91;;;8.81;60.04
68859;BME280;55864;49.238;8.092;2023-04-27T06:50:48;99648.69;;;8.76;60.41
68859;BME280;55864;49.238;8.092;2023-04-27T06:52:48;99654.75;;;8.77;61.73
68859;BME280;55864;49.238;8.092;2023-04-27T06:54:49;99658.69;;;8.71;61.48
68859;BME280;55864;49.238;8.092;2023-04-27T06:56:49;99660.25;;;8.74;60.83
68859;BME280;55864;49.238;8.092;2023-04-27T06:58:50;99646.63;;;8.59;62.05
68859;BME280;55864;49.238;8.092;2023-04-27T07:00:50;99661.44;;;8.70;61.31
68859;BME280;55864;49.238;8.092;2023-04-27T07:02:52;99659.81;;;8.57;60.78
68859;BME280;55864;49.238;8.092;2023-04-27T07:04:53;99664.16;;;8.47;61.55
68859;BME280;55864;49.238;8.092;2023-04-27T07:06:54;99656.00;;;8.62;60.56
68859;BME280;55864;49.238;8.092;2023-04-27T07:08:55;99655.09;;;8.51;61.64
68859;BME280;55864;49.238;8.092;2023-04-27T07:10:55;99656.84;;;8.62;61.10
68859;BME280;55864;49.238;8.092;2023-04-27T07:12:56;99658.31;;;8.55;61.81
68859;BME280;55864;49.238;8.092;2023-04-27T07:14:57;99660.66;;;8.58;61.71
68859;BME280;55864;49.238;8.092;2023-04-27T07:16:57;99659.00;;;8.57;61.82
68859;BME280;55864;49.238;8.092;2023-04-27T07:18:59;99658.75;;;8.60;61.65
68859;BME280;55864;49.238;8.092;2023-04-27T07:21:00;99652.03;;;8.67;61.83
68859;BME280;55864;49.238;8.092;2023-04-27T07:23:00;99658.41;;;8.85;60.73
68859;BME280;55864;49.238;8.092;2023-04-27T07:25:01;99652.91;;;8.88;60.32
68859;BME280;55864;49.238;8.092;2023-04-27T07:27:02;99655.97;;;8.93;59.73
68859;BME280;55864;49.238;8.092;2023-04-27T07:29:02;99651.78;;;9.02;60.83
68859;BME280;55864;49.238;8.092;2023-04-27T07:31:04;99656.09;;;9.12;60.96
68859;BME280;55864;49.238;8.092;2023-04-27T07:33:04;99646.09;;;9.17;59.33
68859;BME280;55864;49.238;8.092;2023-04-27T07:35:07;99646.09;;;9.17;59.35
68859;BME280;55864;49.238;8.092;2023-04-27T07:37:08;99646.16;;;9.27;55.94
68859;BME280;55864;49.238;8.092;2023-04-27T07:39:08;99645.09;;;9.39;57.58
68859;BME280;55864;49.238;8.092;2023-04-27T07:41:09;99640.31;;;9.44;57.42
68859;BME280;55864;49.238;8.092;2023-04-27T07:43:09;99639.19;;;9.46;58.37
68859;BME280;55864;49.238;8.092;2023-04-27T07:45:10;99638.94;;;9.49;57.12
68859;BME280;55864;49.238;8.092;2023-04-27T07:47:11;99630.66;;;9.54;57.12
68859;BME280;55864;49.238;8.092;2023-04-27T07:49:11;99631.38;;;9.56;56.93
68859;BME280;55864;49.238;8.092;2023-04-27T07:51:13;99631.94;;;9.60;56.94
68859;BME280;55864;49.238;8.092;2023-04-27T07:53:14;99621.91;;;9.65;57.42
68859;BME280;55864;49.238;8.092;2023-04-27T07:55:14;99631.03;;;9.70;57.77
68859;BME280;55864;49.238;8.092;2023-04-27T07:57:15;99628.81;;;9.75;56.92
68859;BME280;55864;49.238;8.092;2023-04-27T07:59:15;99631.91;;;9.80;56.60
68859;BME280;55864;49.238;8.092;2023-04-27T08:01:16;99632.31;;;9.85;55.35
68859;BME280;55864;49.238;8.092;2023-04-27T08:03:16;99635.50;;;9.89;55.56
68859;BME280;55864;49.238;8.092;2023-04-27T08:05:17;99638.91;;;10.10;56.03
68859;BME280;55864;49.238;8.092;2023-04-27T08:07:19;99643.63;;;10.16;54.77
68859;BME280;55864;49.238;8.092;2023-04-27T08:09:19;99636.47;;;10.18;55.92
68859;BME280;55864;49.238;8.092;2023-04-27T08:11:20;99642.25;;;10.21;55.42
68859;BME280;55864;49.238;8.092;2023-04-27T08:13:20;99644.59;;;10.24;54.62
68859;BME280;55864;49.238;8.092;2023-04-27T08:15:21;99648.78;;;10.36;54.29
68859;BME280;55864;49.238;8.092;2023-04-27T08:17:22;99642.28;;;10.40;54.38
68859;BME280;55864;49.238;8.092;2023-04-27T08:19:22;99651.41;;;10.46;53.72
68859;BME280;55864;49.238;8.092;2023-04-27T08:21:23;99645.63;;;10.52;53.76
68859;BME280;55864;49.238;8.092;2023-04-27T08:23:26;99643.66;;;10.64;53.57
68859;BME280;55864;49.238;8.092;2023-04-27T08:25:27;99651.00;;;10.70;53.76
68859;BME280;55864;49.238;8.092;2023-04-27T08:27:27;99652.78;;;10.79;53.65
68859;BME280;55864;49.238;8.092;2023-04-27T08:29:28;99649.34;;;10.88;53.37
68859;BME280;55864;49.238;8.092;2023-04-27T08:31:28;99646.44;;;10.91;53.82
68859;BME280;55864;49.238;8.092;2023-04-27T08:33:29;99642.28;;;10.98;53.72
68859;BME280;55864;49.238;8.092;2023-04-27T08:35:29;99644.22;;;10.96;54.12
68859;BME280;55864;49.238;8.092;2023-04-27T08:37:30;99645.59;;;11.00;53.98
68859;BME280;55864;49.238;8.092;2023-04-27T08:39:32;99649.75;;;11.12;53.74
68859;BME280;55864;49.238;8.092;2023-04-27T08:41:33;99645.31;;;11.12;53.23
68859;BME280;55864;49.238;8.092;2023-04-27T08:43:34;99642.25;;;11.17;53.53
68859;BME280;55864;49.238;8.092;2023-04-27T08:45:35;99648.63;;;11.14;53.17
68859;BME280;55864;49.238;8.092;2023-04-27T08:47:37;99637.81;;;11.17;52.95
68859;BME280;55864;49.238;8.092;2023-04-27T08:49:37;99646.09;;;11.22;53.02
68859;BME280;55864;49.238;8.092;2023-04-27T08:51:38;99646.91;;;11.32;53.19
68859;BME280;55864;49.238;8.092;2023-04-27T08:53:44;99646.09;;;11.32;52.39
68859;BME280;55864;49.238;8.092;2023-04-27T08:55:48;99651.47;;;11.40;52.66
68859;BME280;55864;49.238;8.092;2023-04-27T08:57:56;99640.78;;;11.51;52.84
68859;BME280;55864;49.238;8.092;2023-04-27T08:59:57;99652.53;;;11.57;53.40
68859;BME280;55864;49.238;8.092;2023-04-27T09:01:58;99646.47;;;11.56;52.58
68859;BME280;55864;49.238;8.092;2023-04-27T09:04:00;99643.25;;;11.53;52.73
68859;BME280;55864;49.238;8.092;2023-04-27T09:06:01;99642.88;;;11.48;52.68
68859;BME280;55864;49.238;8.092;2023-04-27T09:08:03;99642.31;;;11.44;52.63
68859;BME280;55864;49.238;8.092;2023-04-27T09:10:04;99646.59;;;11.45;53.20
68859;BME280;55864;49.238;8.092;2023-04-27T09:12:14;99653.53;;;11.46;54.09
68859;BME280;55864;49.238;8.092;2023-04-27T09:14:16;99641.91;;;11.49;53.21
68859;BME280;55864;49.238;8.092;2023-04-27T09:16:22;99639.81;;;11.52;52.42
68859;BME280;55864;49.238;8.092;2023-04-27T09:18:22;99638.56;;;11.56;52.32
68859;BME280;55864;49.238;8.092;2023-04-27T09:20:23;99638.78;;;11.72;51.63
68859;BME280;55864;49.238;8.092;2023-04-27T09:22:24;99643.63;;;11.77;52.75
68859;BME280;55864;49.238;8.092;2023-04-27T09:24:24;99637.91;;;11.81;53.56
68859;BME280;55864;49.238;8.092;2023-04-27T09:26:28;99631.91;;;11.89;53.08
68859;BME280;55864;49.238;8.092;2023-04-27T09:28:31;99637.59;;;11.94;53.01
68859;BME280;55864;49.238;8.092;2023-04-27T09:30:31;99635.44;;;12.07;53.56
68859;BME280;55864;49.238;8.092;2023-04-27T09:32:32;99634.56;;;12.16;53.07
68859;BME280;55864;49.238;8.092;2023-04-27T09:34:38;99629.06;;;12.27;53.48
68859;BME280;55864;49.238;8.092;2023-04-27T09:36:39;99628.16;;;12.36;54.01
68859;BME280;55864;49.238;8.092;2023-04-27T09:38:40;99629.25;;;12.43;52.50
68859;BME280;55864;49.238;8.092;2023-04-27T09:40:41;99629.03;;;12.54;53.09
68859;BME280;55864;49.238;8.092;2023-04-27T09:42:41;99625.47;;;12.63;53.27
68859;BME280;55864;49.238;8.092;2023-04-27T09:44:43;99620.22;;;12.63;53.07
68859;BME280;55864;49.238;8.092;2023-04-27T09:46:45;99628.78;;;12.65;51.94
68859;BME280;55864;49.238;8.092;2023-04-27T09:48:47;99623.09;;;12.70;52.10
68859;BME280;55864;49.238;8.092;2023-04-27T09:50:50;99621.94;;;12.90;51.17
68859;BME280;55864;49.238;8.092;2023-04-27T09:52:51;99624.91;;;12.95;51.72
68859;BME280;55864;49.238;8.092;2023-04-27T09:54:52;99622.59;;;12.92;50.85
68859;BME280;55864;49.238;8.092;2023-04-27T09:57:03;99624.63;;;12.98;51.50
68859;BME280;55864;49.238;8.092;2023-04-27T09:59:19;99620.63;;;12.94;51.46
68859;BME280;55864;49.238;8.092;2023-04-27T10:01:31;99619.13;;;12.91;51.03
68859;BME280;55864;49.238;8.092;2023-04-27T10:03:42;99616.56;;;12.99;50.87
68859;BME280;55864;49.238;8.092;2023-04-27T10:06:14;99613.34;;;13.05;52.16
68859;BME280;55864;49.238;8.092;2023-04-27T10:08:21;99610.06;;;13.11;50.96
68859;BME280;55864;49.238;8.092;2023-04-27T10:10:22;99609.78;;;13.14;51.76
68859;BME280;55864;49.238;8.092;2023-04-27T10:12:31;99610.66;;;13.23;51.97
68859;BME280;55864;49.238;8.092;2023-04-27T10:14:32;99614.00;;;13.33;51.06
68859;BME280;55864;49.238;8.092;2023-04-27T10:16:43;99603.13;;;13.36;51.33
68859;BME280;55864;49.238;8.092;2023-04-27T10:18:50;99608.47;;;13.44;51.04
68859;BME280;55864;49.238;8.092;2023-04-27T10:20:50;99614.13;;;13.83;48.84
68859;BME280;55864;49.238;8.092;2023-04-27T10:22:51;99618.34;;;14.09;47.71
68859;BME280;55864;49.238;8.092;2023-04-27T10:24:52;99606.59;;;14.04;49.38
68859;BME280;55864;49.238;8.092;2023-04-27T10:27:00;99609.38;;;13.94;47.90
68859;BME280;55864;49.238;8.092;2023-04-27T10:29:04;99602.75;;;13.90;48.92
68859;BME280;55864;49.238;8.092;2023-04-27T10:31:09;99603.25;;;13.94;48.41
68859;BME280;55864;49.238;8.092;2023-04-27T10:33:15;99596.38;;;14.09;47.79
68859;BME280;55864;49.238;8.092;2023-04-27T10:35:16;99604.09;;;14.02;48.23
68859;BME280;55864;49.238;8.092;2023-04-27T10:37:17;99605.44;;;13.98;48.55
68859;BME280;55864;49.238;8.092;2023-04-27T10:39:20;99609.38;;;14.02;49.00
68859;BME280;55864;49.238;8.092;2023-04-27T10:41:21;99600.16;;;13.98;47.86
68859;BME280;55864;49.238;8.092;2023-04-27T10:43:24;99606.06;;;13.92;47.95
68859;BME280;55864;49.238;8.092;2023-04-27T10:45:26;99600.22;;;14.23;45.78
68859;BME280;55864;49.238;8.092;2023-04-27T10:47:35;99598.09;;;14.42;46.46
68859;BME280;55864;49.238;8.092;2023-04-27T10:49:38;99594.81;;;14.40;47.11